sensor_id;sensor_type;location;lat;lon;timestamp;P1;durP1;ratioP1;P2;durP2;ratioP2
10565;SDS011;5331;48.148;16.326;2023-01-19T00:02:01;5.70;;;5.00;;
10565;SDS011;5331;48.148;16.326;2023-01-19T00:04:28;5.57;;;4.97;;
10565;SDS011;5331;48.148;16.326;2023-01-19T00:06:55;5.30;;;4.80;;
10565;SDS011;5331;48.148;16.326;2023-01-19T00:09:23;5.47;;;4.97;;
10565;SDS011;5331;48.148;16.326;2023-01-19T00:11:49;5.47;;;4.97;;
10565;SDS011;5331;48.148;16.326;2023-01-19T00:14:18;5.50;;;5.00;;
10565;SDS011;5331;48.148;16.326;2023-01-19T00:16:45;5.47;;;4.97;;
10565;SDS011;5331;48.148;16.326;2023-01-19T00:19:11;5.90;;;5.37;;
10565;SDS011;5331;48.148;16.326;2023-01-19T00:21:38;5.80;;;5.30;;
10565;SDS011;5331;48.148;16.326;2023-01-19T00:24:05;5.83;;;5.30;;
10565;SDS011;5331;48.148;16.326;2023-01-19T00:26:32;6.10;;;5.50;;
10565;SDS011;5331;48.148;16.326;2023-01-19T00:28:59;6.13;;;5.50;;
10565;SDS011;5331;48.148;16.326;2023-01-19T00:31:28;6.73;;;6.03;;
10565;SDS011;5331;48.148;16.326;2023-01-19T00:33:58;6.00;;;5.47;;
10565;SDS011;5331;48.148;16.326;2023-01-19T00:36:25;6.20;;;5.60;;
10565;SDS011;5331;48.148;16.326;2023-01-19T00:38:52;5.90;;;5.33;;
10565;SDS011;5331;48.148;16.326;2023-01-19T00:41:19;6.60;;;5.80;;
10565;SDS011;5331;48.148;16.326;2023-01-19T00:44:06;6.63;;;5.93;;
10565;SDS011;5331;48.148;16.326;2023-01-19T00:46:34;6.80;;;6.10;;
10565;SDS011;5331;48.148;16.326;2023-01-19T00:49:01;6.90;;;6.20;;
10565;SDS011;5331;48.148;16.326;2023-01-19T00:51:29;6.83;;;6.23;;
10565;SDS011;5331;48.148;16.326;2023-01-19T00:53:56;6.97;;;6.07;;
10565;SDS011;5331;48.148;16.326;2023-01-19T00:56:24;6.47;;;5.87;;
10565;SDS011;5331;48.148;16.326;2023-01-19T00:58:51;7.00;;;6.13;;
10565;SDS011;5331;48.148;16.326;2023-01-19T01:01:18;6.83;;;6.23;;
10565;SDS011;5331;48.148;16.326;2023-01-19T01:03:46;6.73;;;6.10;;
10565;SDS011;5331;48.148;16.326;2023-01-19T01:06:13;6.80;;;6.10;;
10565;SDS011;5331;48.148;16.326;2023-01-19T01:08:40;6.80;;;6.10;;
10565;SDS011;5331;48.148;16.326;2023-01-19T01:11:07;6.77;;;6.07;;
10565;SDS011;5331;48.148;16.326;2023-01-19T01:13:34;7.67;;;6.87;;
10565;SDS011;5331;48.148;16.326;2023-01-19T01:16:01;7.20;;;6.50;;
10565;SDS011;5331;48.148;16.326;2023-01-19T01:18:28;6.87;;;6.10;;
10565;SDS011;5331;48.148;16.326;2023-01-19T01:21:00;6.57;;;5.87;;
10565;SDS011;5331;48.148;16.326;2023-01-19T01:23:28;6.97;;;6.20;;
10565;SDS011;5331;48.148;16.326;2023-01-19T01:25:55;7.00;;;6.30;;
10565;SDS011;5331;48.148;16.326;2023-01-19T01:28:22;6.70;;;5.97;;
10565;SDS011;5331;48.148;16.326;2023-01-19T01:30:51;6.47;;;5.83;;
10565;SDS011;5331;48.148;16.326;2023-01-19T01:33:18;6.77;;;6.10;;
10565;SDS011;5331;48.148;16.326;2023-01-19T01:35:45;6.40;;;5.80;;
10565;SDS011;5331;48.148;16.326;2023-01-19T01:38:15;7.10;;;6.40;;
10565;SDS011;5331;48.148;16.326;2023-01-19T01:40:42;7.07;;;6.37;;
10565;SDS011;5331;48.148;16.326;2023-01-19T01:43:10;6.60;;;6.00;;
10565;SDS011;5331;48.148;16.326;2023-01-19T01:45:38;6.60;;;6.00;;
10565;SDS011;5331;48.148;16.326;2023-01-19T01:48:06;6.77;;;6.07;;
10565;SDS011;5331;48.148;16.326;2023-01-19T01:50:39;6.97;;;6.27;;
10565;SDS011;5331;48.148;16.326;2023-01-19T01:53:30;6.60;;;5.37;;
10565;SDS011;5331;48.148;16.326;2023-01-19T01:55:59;6.67;;;6.07;;
10565;SDS011;5331;48.148;16.326;2023-01-19T01:58:29;7.10;;;6.20;;
10565;SDS011;5331;48.148;16.326;2023-01-19T02:00:57;6.50;;;5.90;;
10565;SDS011;5331;48.148;16.326;2023-01-19T02:03:42;6.27;;;5.67;;
10565;SDS011;5331;48.148;16.326;2023-01-19T02:06:09;5.97;;;5.47;;
10565;SDS011;5331;48.148;16.326;2023-01-19T02:08:41;6.30;;;5.70;;
10565;SDS011;5331;48.148;16.326;2023-01-19T02:11:30;6.30;;;5.70;;
10565;SDS011;5331;48.148;16.326;2023-01-19T02:14:15;6.30;;;5.70;;
10565;SDS011;5331;48.148;16.326;2023-01-19T02:16:43;5.90;;;5.40;;
10565;SDS011;5331;48.148;16.326;2023-01-19T02:19:11;6.73;;;6.03;;
10565;SDS011;5331;48.148;16.326;2023-01-19T02:21:43;6.27;;;5.67;;
10565;SDS011;5331;48.148;16.326;2023-01-19T02:24:19;6.33;;;5.73;;
10565;SDS011;5331;48.148;16.326;2023-01-19T02:26:46;6.37;;;5.77;;
10565;SDS011;5331;48.148;16.326;2023-01-19T02:29:15;6.47;;;5.87;;
10565;SDS011;5331;48.148;16.326;2023-01-19T02:31:45;6.80;;;6.17;;
10565;SDS011;5331;48.148;16.326;2023-01-19T02:34:13;6.17;;;5.67;;
10565;SDS011;5331;48.148;16.326;2023-01-19T02:36:43;7.00;;;6.30;;
10565;SDS011;5331;48.148;16.326;2023-01-19T02:39:14;6.50;;;5.80;;
10565;SDS011;5331;48.148;16.326;2023-01-19T02:41:46;6.27;;;5.73;;
10565;SDS011;5331;48.148;16.326;2023-01-19T02:44:16;5.90;;;5.40;;
10565;SDS011;5331;48.148;16.326;2023-01-19T02:46:45;6.47;;;5.77;;
10565;SDS011;5331;48.148;16.326;2023-01-19T02:49:12;6.40;;;5.70;;
10565;SDS011;5331;48.148;16.326;2023-01-19T02:51:39;6.00;;;5.50;;
10565;SDS011;5331;48.148;16.326;2023-01-19T02:59:58;6.87;;;6.17;;
10565;SDS011;5331;48.148;16.326;2023-01-19T03:02:35;6.00;;;5.40;;
10565;SDS011;5331;48.148;16.326;2023-01-19T03:05:20;6.70;;;6.03;;
10565;SDS011;5331;48.148;16.326;2023-01-19T03:08:08;6.77;;;6.03;;
10565;SDS011;5331;48.148;16.326;2023-01-19T03:10:44;6.50;;;5.80;;
10565;SDS011;5331;48.148;16.326;2023-01-19T03:13:20;6.77;;;6.00;;
10565;SDS011;5331;48.148;16.326;2023-01-19T03:15:55;6.50;;;5.90;;
10565;SDS011;5331;48.148;16.326;2023-01-19T03:18:26;6.57;;;5.97;;
10565;SDS011;5331;48.148;16.326;2023-01-19T03:20:57;6.43;;;5.83;;
10565;SDS011;5331;48.148;16.326;2023-01-19T03:23:29;7.03;;;6.33;;
10565;SDS011;5331;48.148;16.326;2023-01-19T03:25:57;6.10;;;5.57;;
10565;SDS011;5331;48.148;16.326;2023-01-19T03:28:28;6.47;;;5.87;;
10565;SDS011;5331;48.148;16.326;2023-01-19T03:30:58;7.20;;;6.50;;
10565;SDS011;5331;48.148;16.326;2023-01-19T03:33:28;6.70;;;6.10;;
10565;SDS011;5331;48.148;16.326;2023-01-19T03:36:00;6.90;;;6.03;;
10565;SDS011;5331;48.148;16.326;2023-01-19T03:38:32;7.07;;;6.37;;
10565;SDS011;5331;48.148;16.326;2023-01-19T03:41:02;6.80;;;6.20;;
10565;SDS011;5331;48.148;16.326;2023-01-19T03:43:35;7.10;;;6.40;;
10565;SDS011;5331;48.148;16.326;2023-01-19T03:46:04;6.93;;;6.23;;
10565;SDS011;5331;48.148;16.326;2023-01-19T03:48:32;7.70;;;6.73;;
10565;SDS011;5331;48.148;16.326;2023-01-19T03:51:01;7.17;;;6.23;;
10565;SDS011;5331;48.148;16.326;2023-01-19T03:53:29;7.57;;;6.80;;
10565;SDS011;5331;48.148;16.326;2023-01-19T03:55:56;10.33;;;6.97;;
10565;SDS011;5331;48.148;16.326;2023-01-19T03:58:23;7.17;;;6.47;;
10565;SDS011;5331;48.148;16.326;2023-01-19T04:00:51;7.87;;;7.07;;
10565;SDS011;5331;48.148;16.326;2023-01-19T04:03:18;7.80;;;7.00;;
10565;SDS011;5331;48.148;16.326;2023-01-19T04:05:45;8.30;;;7.43;;
10565;SDS011;5331;48.148;16.326;2023-01-19T04:08:12;8.03;;;7.23;;
10565;SDS011;5331;48.148;16.326;2023-01-19T04:10:39;8.40;;;7.23;;
10565;SDS011;5331;48.148;16.326;2023-01-19T04:13:06;9.13;;;7.63;;
10565;SDS011;5331;48.148;16.326;2023-01-19T04:15:33;8.67;;;7.53;;
10565;SDS011;5331;48.148;16.326;2023-01-19T04:18:01;9.60;;;8.03;;
10565;SDS011;5331;48.148;16.326;2023-01-19T04:20:29;10.17;;;8.10;;
10565;SDS011;5331;48.148;16.326;2023-01-19T04:22:57;8.40;;;7.50;;
10565;SDS011;5331;48.148;16.326;2023-01-19T04:25:25;8.90;;;7.97;;
10565;SDS011;5331;48.148;16.326;2023-01-19T04:27:53;10.13;;;8.00;;
10565;SDS011;5331;48.148;16.326;2023-01-19T04:30:22;10.33;;;8.17;;
10565;SDS011;5331;48.148;16.326;2023-01-19T04:32:48;8.63;;;7.73;;
10565;SDS011;5331;48.148;16.326;2023-01-19T04:35:17;8.93;;;7.77;;
10565;SDS011;5331;48.148;16.326;2023-01-19T04:37:44;9.83;;;7.63;;
10565;SDS011;5331;48.148;16.326;2023-01-19T04:40:11;9.33;;;8.20;;
10565;SDS011;5331;48.148;16.326;2023-01-19T04:42:38;9.10;;;7.77;;
10565;SDS011;5331;48.148;16.326;2023-01-19T04:45:09;9.67;;;8.67;;
10565;SDS011;5331;48.148;16.326;2023-01-19T04:47:36;9.87;;;8.87;;
10565;SDS011;5331;48.148;16.326;2023-01-19T04:50:04;10.07;;;8.43;;
10565;SDS011;5331;48.148;16.326;2023-01-19T04:52:33;11.30;;;8.83;;
10565;SDS011;5331;48.148;16.326;2023-01-19T04:55:01;11.17;;;9.07;;
10565;SDS011;5331;48.148;16.326;2023-01-19T04:57:28;10.40;;;8.80;;
10565;SDS011;5331;48.148;16.326;2023-01-19T04:59:55;9.90;;;8.77;;
10565;SDS011;5331;48.148;16.326;2023-01-19T05:02:23;10.43;;;8.77;;
10565;SDS011;5331;48.148;16.326;2023-01-19T05:04:50;10.60;;;8.70;;
10565;SDS011;5331;48.148;16.326;2023-01-19T05:07:17;10.50;;;9.27;;
10565;SDS011;5331;48.148;16.326;2023-01-19T05:09:46;9.97;;;8.50;;
10565;SDS011;5331;48.148;16.326;2023-01-19T05:12:13;9.50;;;8.43;;
10565;SDS011;5331;48.148;16.326;2023-01-19T05:14:40;9.53;;;8.23;;
10565;SDS011;5331;48.148;16.326;2023-01-19T05:17:07;10.37;;;8.93;;
10565;SDS011;5331;48.148;16.326;2023-01-19T05:19:34;9.83;;;8.83;;
10565;SDS011;5331;48.148;16.326;2023-01-19T05:22:01;10.00;;;8.47;;
10565;SDS011;5331;48.148;16.326;2023-01-19T05:24:29;10.70;;;8.70;;
10565;SDS011;5331;48.148;16.326;2023-01-19T05:26:58;9.33;;;8.27;;
10565;SDS011;5331;48.148;16.326;2023-01-19T05:29:25;10.13;;;8.93;;
10565;SDS011;5331;48.148;16.326;2023-01-19T05:31:52;10.60;;;8.77;;
10565;SDS011;5331;48.148;16.326;2023-01-19T05:34:20;11.77;;;8.87;;
10565;SDS011;5331;48.148;16.326;2023-01-19T05:36:47;10.07;;;8.77;;
10565;SDS011;5331;48.148;16.326;2023-01-19T05:39:15;12.00;;;9.80;;
10565;SDS011;5331;48.148;16.326;2023-01-19T05:41:42;11.73;;;9.67;;
10565;SDS011;5331;48.148;16.326;2023-01-19T05:44:11;11.53;;;9.70;;
10565;SDS011;5331;48.148;16.326;2023-01-19T05:46:38;13.27;;;10.37;;
10565;SDS011;5331;48.148;16.326;2023-01-19T05:49:05;11.77;;;9.50;;
10565;SDS011;5331;48.148;16.326;2023-01-19T05:51:33;11.43;;;9.80;;
10565;SDS011;5331;48.148;16.326;2023-01-19T05:54:04;12.03;;;9.73;;
10565;SDS011;5331;48.148;16.326;2023-01-19T05:56:32;11.73;;;9.87;;
10565;SDS011;5331;48.148;16.326;2023-01-19T05:59:00;12.87;;;10.10;;
10565;SDS011;5331;48.148;16.326;2023-01-19T06:01:28;12.87;;;10.60;;
10565;SDS011;5331;48.148;16.326;2023-01-19T06:03:55;12.50;;;10.10;;
10565;SDS011;5331;48.148;16.326;2023-01-19T06:06:22;14.03;;;10.40;;
10565;SDS011;5331;48.148;16.326;2023-01-19T06:08:49;13.57;;;10.03;;
10565;SDS011;5331;48.148;16.326;2023-01-19T06:11:16;13.37;;;10.57;;
10565;SDS011;5331;48.148;16.326;2023-01-19T06:13:43;11.93;;;10.33;;
10565;SDS011;5331;48.148;16.326;2023-01-19T06:16:10;12.33;;;9.67;;
10565;SDS011;5331;48.148;16.326;2023-01-19T06:18:39;13.77;;;10.50;;
10565;SDS011;5331;48.148;16.326;2023-01-19T06:21:07;12.23;;;9.93;;
10565;SDS011;5331;48.148;16.326;2023-01-19T06:23:36;13.07;;;9.80;;
10565;SDS011;5331;48.148;16.326;2023-01-19T06:26:03;11.50;;;9.73;;
10565;SDS011;5331;48.148;16.326;2023-01-19T06:28:30;11.73;;;10.17;;
10565;SDS011;5331;48.148;16.326;2023-01-19T06:30:57;11.23;;;9.83;;
10565;SDS011;5331;48.148;16.326;2023-01-19T06:33:25;11.73;;;9.80;;
10565;SDS011;5331;48.148;16.326;2023-01-19T06:35:54;11.07;;;9.67;;
10565;SDS011;5331;48.148;16.326;2023-01-19T06:38:21;12.17;;;9.53;;
10565;SDS011;5331;48.148;16.326;2023-01-19T06:40:52;11.67;;;9.50;;
10565;SDS011;5331;48.148;16.326;2023-01-19T06:43:22;13.40;;;10.00;;
10565;SDS011;5331;48.148;16.326;2023-01-19T06:45:50;11.93;;;10.23;;
10565;SDS011;5331;48.148;16.326;2023-01-19T06:48:17;11.53;;;10.10;;
10565;SDS011;5331;48.148;16.326;2023-01-19T06:50:45;11.60;;;9.33;;
10565;SDS011;5331;48.148;16.326;2023-01-19T06:53:14;11.73;;;9.77;;
10565;SDS011;5331;48.148;16.326;2023-01-19T06:55:44;12.67;;;9.70;;
10565;SDS011;5331;48.148;16.326;2023-01-19T06:58:11;11.80;;;9.57;;
10565;SDS011;5331;48.148;16.326;2023-01-19T07:00:38;12.63;;;9.87;;
10565;SDS011;5331;48.148;16.326;2023-01-19T07:03:05;12.33;;;9.70;;
10565;SDS011;5331;48.148;16.326;2023-01-19T07:05:33;11.60;;;10.13;;
10565;SDS011;5331;48.148;16.326;2023-01-19T07:08:00;11.07;;;8.97;;
10565;SDS011;5331;48.148;16.326;2023-01-19T07:10:29;10.97;;;9.20;;
10565;SDS011;5331;48.148;16.326;2023-01-19T07:13:02;10.17;;;9.07;;
10565;SDS011;5331;48.148;16.326;2023-01-19T07:15:30;11.70;;;9.70;;
10565;SDS011;5331;48.148;16.326;2023-01-19T07:17:58;11.60;;;9.50;;
10565;SDS011;5331;48.148;16.326;2023-01-19T07:20:27;10.50;;;8.80;;
10565;SDS011;5331;48.148;16.326;2023-01-19T07:22:54;11.07;;;8.90;;
10565;SDS011;5331;48.148;16.326;2023-01-19T07:25:23;12.67;;;9.30;;
10565;SDS011;5331;48.148;16.326;2023-01-19T07:27:52;11.20;;;9.13;;
10565;SDS011;5331;48.148;16.326;2023-01-19T07:30:22;10.73;;;9.00;;
10565;SDS011;5331;48.148;16.326;2023-01-19T07:32:49;10.97;;;9.20;;
10565;SDS011;5331;48.148;16.326;2023-01-19T07:35:16;10.47;;;8.93;;
10565;SDS011;5331;48.148;16.326;2023-01-19T07:37:43;11.07;;;9.37;;
10565;SDS011;5331;48.148;16.326;2023-01-19T07:40:10;11.50;;;9.27;;
10565;SDS011;5331;48.148;16.326;2023-01-19T07:42:37;11.87;;;9.00;;
10565;SDS011;5331;48.148;16.326;2023-01-19T07:45:06;14.33;;;10.57;;
10565;SDS011;5331;48.148;16.326;2023-01-19T07:47:36;21.60;;;15.23;;
10565;SDS011;5331;48.148;16.326;2023-01-19T07:50:03;13.93;;;10.43;;
10565;SDS011;5331;48.148;16.326;2023-01-19T07:52:31;11.00;;;9.30;;
10565;SDS011;5331;48.148;16.326;2023-01-19T07:54:58;12.00;;;9.50;;
10565;SDS011;5331;48.148;16.326;2023-01-19T07:57:25;13.17;;;10.20;;
10565;SDS011;5331;48.148;16.326;2023-01-19T07:59:52;11.33;;;9.07;;
10565;SDS011;5331;48.148;16.326;2023-01-19T08:02:21;11.40;;;9.67;;
10565;SDS011;5331;48.148;16.326;2023-01-19T08:04:47;10.53;;;8.97;;
10565;SDS011;5331;48.148;16.326;2023-01-19T08:07:15;11.30;;;9.00;;
10565;SDS011;5331;48.148;16.326;2023-01-19T08:09:41;11.00;;;8.73;;
10565;SDS011;5331;48.148;16.326;2023-01-19T08:12:08;10.47;;;8.70;;
10565;SDS011;5331;48.148;16.326;2023-01-19T08:14:35;10.23;;;8.40;;
10565;SDS011;5331;48.148;16.326;2023-01-19T08:17:04;10.57;;;8.33;;
10565;SDS011;5331;48.148;16.326;2023-01-19T08:19:33;10.83;;;9.30;;
10565;SDS011;5331;48.148;16.326;2023-01-19T08:22:00;10.03;;;8.70;;
10565;SDS011;5331;48.148;16.326;2023-01-19T08:24:27;11.57;;;8.80;;
10565;SDS011;5331;48.148;16.326;2023-01-19T08:26:56;10.50;;;8.50;;
10565;SDS011;5331;48.148;16.326;2023-01-19T08:29:24;10.00;;;8.33;;
10565;SDS011;5331;48.148;16.326;2023-01-19T08:31:51;10.20;;;8.40;;
10565;SDS011;5331;48.148;16.326;2023-01-19T08:34:19;11.70;;;9.17;;
10565;SDS011;5331;48.148;16.326;2023-01-19T08:36:47;10.57;;;8.53;;
10565;SDS011;5331;48.148;16.326;2023-01-19T08:39:14;9.93;;;8.50;;
10565;SDS011;5331;48.148;16.326;2023-01-19T08:41:42;9.87;;;8.60;;
10565;SDS011;5331;48.148;16.326;2023-01-19T08:44:09;11.43;;;9.03;;
10565;SDS011;5331;48.148;16.326;2023-01-19T08:46:36;10.37;;;8.40;;
10565;SDS011;5331;48.148;16.326;2023-01-19T08:49:03;9.70;;;8.47;;
10565;SDS011;5331;48.148;16.326;2023-01-19T08:51:29;9.27;;;8.00;;
10565;SDS011;5331;48.148;16.326;2023-01-19T08:53:58;8.27;;;7.33;;
10565;SDS011;5331;48.148;16.326;2023-01-19T08:56:25;9.53;;;8.03;;
10565;SDS011;5331;48.148;16.326;2023-01-19T08:58:52;8.60;;;7.70;;
10565;SDS011;5331;48.148;16.326;2023-01-19T09:01:19;11.07;;;8.17;;
10565;SDS011;5331;48.148;16.326;2023-01-19T09:03:46;9.27;;;8.07;;
10565;SDS011;5331;48.148;16.326;2023-01-19T09:06:14;9.23;;;7.73;;
10565;SDS011;5331;48.148;16.326;2023-01-19T09:08:43;10.27;;;8.43;;
10565;SDS011;5331;48.148;16.326;2023-01-19T09:11:13;9.10;;;7.97;;
10565;SDS011;5331;48.148;16.326;2023-01-19T09:13:41;11.07;;;8.67;;
10565;SDS011;5331;48.148;16.326;2023-01-19T09:16:08;9.53;;;8.03;;
10565;SDS011;5331;48.148;16.326;2023-01-19T09:18:36;9.90;;;8.03;;
10565;SDS011;5331;48.148;16.326;2023-01-19T09:21:04;9.03;;;7.60;;
10565;SDS011;5331;48.148;16.326;2023-01-19T09:23:32;9.50;;;7.40;;
10565;SDS011;5331;48.148;16.326;2023-01-19T09:26:00;8.17;;;7.37;;
10565;SDS011;5331;48.148;16.326;2023-01-19T09:28:29;10.27;;;7.47;;
10565;SDS011;5331;48.148;16.326;2023-01-19T09:30:56;8.47;;;7.57;;
10565;SDS011;5331;48.148;16.326;2023-01-19T09:33:25;8.10;;;7.30;;
10565;SDS011;5331;48.148;16.326;2023-01-19T09:35:53;9.43;;;7.80;;
10565;SDS011;5331;48.148;16.326;2023-01-19T09:38:21;8.40;;;7.60;;
10565;SDS011;5331;48.148;16.326;2023-01-19T09:40:50;8.40;;;7.40;;
10565;SDS011;5331;48.148;16.326;2023-01-19T09:43:20;8.13;;;6.87;;
10565;SDS011;5331;48.148;16.326;2023-01-19T09:46:04;9.00;;;7.63;;
10565;SDS011;5331;48.148;16.326;2023-01-19T09:48:44;8.70;;;7.80;;
10565;SDS011;5331;48.148;16.326;2023-01-19T09:51:14;8.80;;;7.57;;
10565;SDS011;5331;48.148;16.326;2023-01-19T09:53:49;9.37;;;7.80;;
10565;SDS011;5331;48.148;16.326;2023-01-19T09:56:28;8.53;;;6.90;;
10565;SDS011;5331;48.148;16.326;2023-01-19T09:58:58;7.97;;;6.90;;
10565;SDS011;5331;48.148;16.326;2023-01-19T10:01:32;7.40;;;6.60;;
10565;SDS011;5331;48.148;16.326;2023-01-19T10:04:15;7.43;;;6.43;;
10565;SDS011;5331;48.148;16.326;2023-01-19T10:06:58;6.73;;;6.13;;
10565;SDS011;5331;48.148;16.326;2023-01-19T10:10:02;6.73;;;6.00;;
10565;SDS011;5331;48.148;16.326;2023-01-19T10:12:38;7.13;;;6.23;;
10565;SDS011;5331;48.148;16.326;2023-01-19T10:15:24;7.80;;;6.70;;
10565;SDS011;5331;48.148;16.326;2023-01-19T10:18:11;6.87;;;6.23;;
10565;SDS011;5331;48.148;16.326;2023-01-19T10:20:42;6.90;;;6.20;;
10565;SDS011;5331;48.148;16.326;2023-01-19T10:23:17;8.97;;;6.43;;
10565;SDS011;5331;48.148;16.326;2023-01-19T10:26:05;7.27;;;6.57;;
10565;SDS011;5331;48.148;16.326;2023-01-19T10:28:35;7.63;;;6.57;;
10565;SDS011;5331;48.148;16.326;2023-01-19T10:31:05;7.70;;;6.70;;
10565;SDS011;5331;48.148;16.326;2023-01-19T10:33:33;7.23;;;6.47;;
10565;SDS011;5331;48.148;16.326;2023-01-19T10:36:02;7.27;;;6.57;;
10565;SDS011;5331;48.148;16.326;2023-01-19T10:38:31;7.30;;;6.30;;
10565;SDS011;5331;48.148;16.326;2023-01-19T10:41:00;7.07;;;6.37;;
10565;SDS011;5331;48.148;16.326;2023-01-19T10:43:37;6.90;;;6.20;;
10565;SDS011;5331;48.148;16.326;2023-01-19T10:46:13;6.17;;;5.57;;
10565;SDS011;5331;48.148;16.326;2023-01-19T10:48:47;7.43;;;6.13;;
10565;SDS011;5331;48.148;16.326;2023-01-19T10:51:15;7.13;;;5.80;;
10565;SDS011;5331;48.148;16.326;2023-01-19T10:53:51;6.47;;;5.80;;
10565;SDS011;5331;48.148;16.326;2023-01-19T10:56:23;6.57;;;5.87;;
10565;SDS011;5331;48.148;16.326;2023-01-19T10:58:52;5.33;;;4.83;;
10565;SDS011;5331;48.148;16.326;2023-01-19T11:01:21;5.60;;;5.10;;
10565;SDS011;5331;48.148;16.326;2023-01-19T11:03:49;5.57;;;5.07;;
10565;SDS011;5331;48.148;16.326;2023-01-19T11:06:18;6.40;;;5.80;;
10565;SDS011;5331;48.148;16.326;2023-01-19T11:08:47;5.73;;;5.23;;
10565;SDS011;5331;48.148;16.326;2023-01-19T11:11:16;6.47;;;5.77;;
10565;SDS011;5331;48.148;16.326;2023-01-19T11:13:44;6.00;;;5.40;;
10565;SDS011;5331;48.148;16.326;2023-01-19T11:16:31;5.30;;;4.80;;
10565;SDS011;5331;48.148;16.326;2023-01-19T11:18:59;5.07;;;4.57;;
10565;SDS011;5331;48.148;16.326;2023-01-19T11:21:28;4.83;;;4.27;;
10565;SDS011;5331;48.148;16.326;2023-01-19T11:23:57;4.80;;;4.40;;
10565;SDS011;5331;48.148;16.326;2023-01-19T11:26:30;5.40;;;4.40;;
10565;SDS011;5331;48.148;16.326;2023-01-19T11:29:01;5.10;;;4.60;;
10565;SDS011;5331;48.148;16.326;2023-01-19T11:31:32;5.60;;;5.10;;
10565;SDS011;5331;48.148;16.326;2023-01-19T11:34:02;5.33;;;4.83;;
10565;SDS011;5331;48.148;16.326;2023-01-19T11:36:31;5.63;;;4.50;;
10565;SDS011;5331;48.148;16.326;2023-01-19T11:39:12;5.27;;;4.07;;
10565;SDS011;5331;48.148;16.326;2023-01-19T11:41:48;3.77;;;3.37;;
10565;SDS011;5331;48.148;16.326;2023-01-19T11:44:18;3.87;;;3.30;;
10565;SDS011;5331;48.148;16.326;2023-01-19T11:46:49;3.27;;;2.97;;
10565;SDS011;5331;48.148;16.326;2023-01-19T11:49:20;4.20;;;3.40;;
10565;SDS011;5331;48.148;16.326;2023-01-19T11:51:57;4.37;;;3.17;;
10565;SDS011;5331;48.148;16.326;2023-01-19T11:54:28;3.57;;;3.27;;
10565;SDS011;5331;48.148;16.326;2023-01-19T11:57:00;4.77;;;3.87;;
10565;SDS011;5331;48.148;16.326;2023-01-19T11:59:31;4.03;;;3.63;;
10565;SDS011;5331;48.148;16.326;2023-01-19T12:02:00;4.20;;;3.67;;
10565;SDS011;5331;48.148;16.326;2023-01-19T12:04:38;3.83;;;3.53;;
10565;SDS011;5331;48.148;16.326;2023-01-19T12:07:08;5.50;;;4.13;;
10565;SDS011;5331;48.148;16.326;2023-01-19T12:09:39;4.97;;;4.47;;
10565;SDS011;5331;48.148;16.326;2023-01-19T12:12:10;5.07;;;4.57;;
10565;SDS011;5331;48.148;16.326;2023-01-19T12:14:46;4.67;;;4.00;;
10565;SDS011;5331;48.148;16.326;2023-01-19T12:17:23;5.23;;;4.20;;
10565;SDS011;5331;48.148;16.326;2023-01-19T12:19:53;5.03;;;4.17;;
10565;SDS011;5331;48.148;16.326;2023-01-19T12:22:26;5.20;;;4.03;;
10565;SDS011;5331;48.148;16.326;2023-01-19T12:24:55;4.07;;;3.67;;
10565;SDS011;5331;48.148;16.326;2023-01-19T12:27:33;4.20;;;3.53;;
10565;SDS011;5331;48.148;16.326;2023-01-19T12:30:05;4.13;;;3.73;;
10565;SDS011;5331;48.148;16.326;2023-01-19T12:32:44;4.73;;;4.17;;
10565;SDS011;5331;48.148;16.326;2023-01-19T12:38:22;5.23;;;4.40;;
10565;SDS011;5331;48.148;16.326;2023-01-19T12:44:14;6.23;;;4.10;;
10565;SDS011;5331;48.148;16.326;2023-01-19T12:46:46;5.60;;;4.27;;
10565;SDS011;5331;48.148;16.326;2023-01-19T12:49:23;5.20;;;4.03;;
10565;SDS011;5331;48.148;16.326;2023-01-19T12:52:08;4.47;;;4.07;;
10565;SDS011;5331;48.148;16.326;2023-01-19T12:54:39;4.97;;;4.47;;
10565;SDS011;5331;48.148;16.326;2023-01-19T12:57:16;5.40;;;4.90;;
10565;SDS011;5331;48.148;16.326;2023-01-19T12:59:54;5.57;;;4.97;;
10565;SDS011;5331;48.148;16.326;2023-01-19T13:05:25;5.60;;;5.10;;
10565;SDS011;5331;48.148;16.326;2023-01-19T13:11:15;13.83;;;10.20;;
10565;SDS011;5331;48.148;16.326;2023-01-19T13:16:58;14.20;;;10.80;;
10565;SDS011;5331;48.148;16.326;2023-01-19T13:19:41;13.93;;;9.77;;
10565;SDS011;5331;48.148;16.326;2023-01-19T13:25:28;15.57;;;10.43;;
10565;SDS011;5331;48.148;16.326;2023-01-19T13:28:00;14.60;;;11.13;;
10565;SDS011;5331;48.148;16.326;2023-01-19T13:30:33;15.30;;;11.83;;
10565;SDS011;5331;48.148;16.326;2023-01-19T13:33:08;15.33;;;11.80;;
10565;SDS011;5331;48.148;16.326;2023-01-19T13:35:50;14.77;;;11.30;;
10565;SDS011;5331;48.148;16.326;2023-01-19T13:38:22;14.83;;;11.00;;
10565;SDS011;5331;48.148;16.326;2023-01-19T13:40:50;15.57;;;10.87;;
10565;SDS011;5331;48.148;16.326;2023-01-19T13:43:35;13.53;;;10.83;;
10565;SDS011;5331;48.148;16.326;2023-01-19T13:46:04;15.97;;;10.80;;
10565;SDS011;5331;48.148;16.326;2023-01-19T13:48:31;15.07;;;10.83;;
10565;SDS011;5331;48.148;16.326;2023-01-19T13:51:02;16.47;;;11.03;;
10565;SDS011;5331;48.148;16.326;2023-01-19T13:53:31;12.73;;;10.10;;
10565;SDS011;5331;48.148;16.326;2023-01-19T13:56:12;17.47;;;10.90;;
10565;SDS011;5331;48.148;16.326;2023-01-19T13:58:59;15.00;;;10.97;;
10565;SDS011;5331;48.148;16.326;2023-01-19T14:01:31;15.63;;;10.83;;
10565;SDS011;5331;48.148;16.326;2023-01-19T14:03:58;13.57;;;10.30;;
10565;SDS011;5331;48.148;16.326;2023-01-19T14:06:33;13.97;;;9.73;;
10565;SDS011;5331;48.148;16.326;2023-01-19T14:11:45;14.83;;;10.37;;
10565;SDS011;5331;48.148;16.326;2023-01-19T14:14:23;14.10;;;10.63;;
10565;SDS011;5331;48.148;16.326;2023-01-19T14:16:51;17.93;;;10.53;;
10565;SDS011;5331;48.148;16.326;2023-01-19T14:19:20;13.23;;;10.13;;
10565;SDS011;5331;48.148;16.326;2023-01-19T14:21:56;14.30;;;10.50;;
10565;SDS011;5331;48.148;16.326;2023-01-19T14:24:26;13.77;;;10.33;;
10565;SDS011;5331;48.148;16.326;2023-01-19T14:27:07;15.47;;;9.90;;
10565;SDS011;5331;48.148;16.326;2023-01-19T14:29:49;14.73;;;9.87;;
10565;SDS011;5331;48.148;16.326;2023-01-19T14:32:23;16.37;;;11.83;;
10565;SDS011;5331;48.148;16.326;2023-01-19T14:34:52;15.97;;;11.50;;
10565;SDS011;5331;48.148;16.326;2023-01-19T14:37:44;14.13;;;11.03;;
10565;SDS011;5331;48.148;16.326;2023-01-19T14:40:16;15.67;;;10.80;;
10565;SDS011;5331;48.148;16.326;2023-01-19T14:42:46;14.90;;;10.40;;
10565;SDS011;5331;48.148;16.326;2023-01-19T14:45:18;16.27;;;10.93;;
10565;SDS011;5331;48.148;16.326;2023-01-19T14:47:53;13.70;;;10.00;;
10565;SDS011;5331;48.148;16.326;2023-01-19T14:50:23;14.87;;;10.63;;
10565;SDS011;5331;48.148;16.326;2023-01-19T14:52:52;14.27;;;10.70;;
10565;SDS011;5331;48.148;16.326;2023-01-19T14:55:25;15.83;;;11.17;;
10565;SDS011;5331;48.148;16.326;2023-01-19T14:57:57;12.97;;;9.80;;
10565;SDS011;5331;48.148;16.326;2023-01-19T15:00:24;16.50;;;10.70;;
10565;SDS011;5331;48.148;16.326;2023-01-19T15:02:53;13.77;;;10.47;;
10565;SDS011;5331;48.148;16.326;2023-01-19T15:05:21;14.30;;;11.13;;
10565;SDS011;5331;48.148;16.326;2023-01-19T15:07:50;15.70;;;11.23;;
10565;SDS011;5331;48.148;16.326;2023-01-19T15:10:18;14.00;;;11.13;;
10565;SDS011;5331;48.148;16.326;2023-01-19T15:12:47;13.67;;;10.93;;
10565;SDS011;5331;48.148;16.326;2023-01-19T15:15:16;15.07;;;10.50;;
10565;SDS011;5331;48.148;16.326;2023-01-19T15:17:46;13.50;;;10.10;;
10565;SDS011;5331;48.148;16.326;2023-01-19T15:20:15;12.83;;;10.90;;
10565;SDS011;5331;48.148;16.326;2023-01-19T15:22:44;15.50;;;10.90;;
10565;SDS011;5331;48.148;16.326;2023-01-19T15:25:12;14.33;;;10.47;;
10565;SDS011;5331;48.148;16.326;2023-01-19T15:27:40;14.50;;;11.23;;